CYOC

Old Crow Airport

Old Crow, , Canada
METAR CYOC 140200Z 04022G29KT 1 3/4SM -SN BLSN BKN018 OVC028 M17/M21 A3010 RMK SN6SC1SC1 CLIMAT -16.7/-17.4/8.0 CM/4.2 MWE/LAST STFD OBS/NEXT 141400Z SLP223
Observed Flight Rules
Nov-14 @ 02:00 UTC (3 hours ago) Instrument Flight Rules
Wind Visibility Clouds Conditions
40° at 22 knots
 Gusting to 29 knots
1 3/4 miles
  • Broken at 1,800' AGL
  • Overcast at 2,800' AGL
  • Light Snow
  • Blowing
  • Snow
Temperatures Readings
Current -17°C / 1°F
Dewpoint -21°C / -6°F
Humidity 71%
Altimeter 30.1" Hg
Pressure 1022.3 hPa
Elevation 251
METAR CYOC 140200Z 04022G29KT 1 3/4SM -SN BLSN BKN018 OVC028 M17/M21 A3010 RMK SN6SC1SC1 CLIMAT -16.7/-17.4/8.0 CM/4.2 MWE/LAST STFD OBS/NEXT 141400Z SLP223
Observed Flight Rules
Nov-14 @ 02:00 UTC
(3 hours ago)
IFR
Wind Visibility
40° at 22 knots
 Gusting to 29 knots
1 3/4 miles
Clouds
  • Broken at 1,800' AGL
  • Overcast at 2,800' AGL
Conditions
  • Light Snow
  • Blowing
  • Snow
Temperature Dewpoint
-17°C / 1°F -21°C / -6°F
Humidity Altimeter Pressure
71% 30.1" Hg 1022.3 hPa